sensor_id;sensor_type;location;lat;lon;timestamp;temperature;humidity
54518;DHT22;40423;53.176;6.002;2022-11-03T00:01:43;11.90;99.90
54518;DHT22;40423;53.176;6.002;2022-11-03T00:04:11;11.80;99.90
54518;DHT22;40423;53.176;6.002;2022-11-03T00:06:38;11.80;99.90
54518;DHT22;40423;53.176;6.002;2022-11-03T00:09:06;11.80;99.90
54518;DHT22;40423;53.176;6.002;2022-11-03T00:11:34;11.90;99.90
54518;DHT22;40423;53.176;6.002;2022-11-03T00:14:00;11.80;99.90
54518;DHT22;40423;53.176;6.002;2022-11-03T00:16:26;11.80;99.90
54518;DHT22;40423;53.176;6.002;2022-11-03T00:18:52;11.70;99.90
54518;DHT22;40423;53.176;6.002;2022-11-03T00:21:18;11.80;99.90
54518;DHT22;40423;53.176;6.002;2022-11-03T00:23:44;11.80;99.90
54518;DHT22;40423;53.176;6.002;2022-11-03T00:26:16;11.70;99.90
54518;DHT22;40423;53.176;6.002;2022-11-03T00:28:47;11.80;99.90
54518;DHT22;40423;53.176;6.002;2022-11-03T00:31:19;11.80;99.90
54518;DHT22;40423;53.176;6.002;2022-11-03T00:33:46;11.80;99.90
54518;DHT22;40423;53.176;6.002;2022-11-03T00:36:17;11.80;99.90
54518;DHT22;40423;53.176;6.002;2022-11-03T00:38:44;11.80;99.90
54518;DHT22;40423;53.176;6.002;2022-11-03T00:41:10;11.70;99.90
54518;DHT22;40423;53.176;6.002;2022-11-03T00:43:37;11.70;99.90
54518;DHT22;40423;53.176;6.002;2022-11-03T00:46:04;11.70;99.90
54518;DHT22;40423;53.176;6.002;2022-11-03T00:48:31;11.70;99.90
54518;DHT22;40423;53.176;6.002;2022-11-03T00:51:14;11.70;99.90
54518;DHT22;40423;53.176;6.002;2022-11-03T00:53:41;11.60;99.90
54518;DHT22;40423;53.176;6.002;2022-11-03T00:56:10;11.60;99.90
54518;DHT22;40423;53.176;6.002;2022-11-03T00:58:37;11.60;99.90
54518;DHT22;40423;53.176;6.002;2022-11-03T01:01:05;11.60;99.90
54518;DHT22;40423;53.176;6.002;2022-11-03T01:03:33;11.60;99.90
54518;DHT22;40423;53.176;6.002;2022-11-03T01:05:59;11.60;99.90
54518;DHT22;40423;53.176;6.002;2022-11-03T01:08:43;11.50;99.90
54518;DHT22;40423;53.176;6.002;2022-11-03T01:11:18;11.50;99.90
54518;DHT22;40423;53.176;6.002;2022-11-03T01:14:03;11.50;99.90
54518;DHT22;40423;53.176;6.002;2022-11-03T01:16:30;11.50;99.90
54518;DHT22;40423;53.176;6.002;2022-11-03T01:18:56;11.50;99.90
54518;DHT22;40423;53.176;6.002;2022-11-03T01:21:22;11.50;99.90
54518;DHT22;40423;53.176;6.002;2022-11-03T01:23:48;11.40;99.90
54518;DHT22;40423;53.176;6.002;2022-11-03T01:26:14;11.50;99.90
54518;DHT22;40423;53.176;6.002;2022-11-03T01:28:42;11.40;99.90
54518;DHT22;40423;53.176;6.002;2022-11-03T01:31:14;11.40;99.90
54518;DHT22;40423;53.176;6.002;2022-11-03T01:33:40;11.40;99.90
54518;DHT22;40423;53.176;6.002;2022-11-03T01:36:07;11.40;99.90
54518;DHT22;40423;53.176;6.002;2022-11-03T01:38:34;11.40;99.90
54518;DHT22;40423;53.176;6.002;2022-11-03T01:41:01;11.40;99.90
54518;DHT22;40423;53.176;6.002;2022-11-03T01:43:28;11.40;99.90
54518;DHT22;40423;53.176;6.002;2022-11-03T01:46:14;11.40;99.90
54518;DHT22;40423;53.176;6.002;2022-11-03T01:49:00;11.40;99.90
54518;DHT22;40423;53.176;6.002;2022-11-03T01:51:29;11.40;99.90
54518;DHT22;40423;53.176;6.002;2022-11-03T01:53:59;11.40;99.90
54518;DHT22;40423;53.176;6.002;2022-11-03T01:56:28;11.40;99.90
54518;DHT22;40423;53.176;6.002;2022-11-03T01:58:55;11.40;99.90
54518;DHT22;40423;53.176;6.002;2022-11-03T02:01:21;11.40;99.90
54518;DHT22;40423;53.176;6.002;2022-11-03T02:03:54;11.30;99.90
54518;DHT22;40423;53.176;6.002;2022-11-03T02:06:23;11.40;99.90
54518;DHT22;40423;53.176;6.002;2022-11-03T02:09:13;11.40;99.90
54518;DHT22;40423;53.176;6.002;2022-11-03T02:11:38;11.40;99.90
54518;DHT22;40423;53.176;6.002;2022-11-03T02:14:22;11.30;99.90
54518;DHT22;40423;53.176;6.002;2022-11-03T02:17:00;11.30;99.90
54518;DHT22;40423;53.176;6.002;2022-11-03T02:19:45;11.30;99.90
54518;DHT22;40423;53.176;6.002;2022-11-03T02:22:25;11.30;99.90
54518;DHT22;40423;53.176;6.002;2022-11-03T02:27:38;11.20;99.90
54518;DHT22;40423;53.176;6.002;2022-11-03T02:30:04;11.10;99.90
54518;DHT22;40423;53.176;6.002;2022-11-03T02:35:29;11.10;99.90
54518;DHT22;40423;53.176;6.002;2022-11-03T02:37:59;11.00;99.90
54518;DHT22;40423;53.176;6.002;2022-11-03T02:40:29;11.10;99.90
54518;DHT22;40423;53.176;6.002;2022-11-03T02:42:57;10.90;99.90
54518;DHT22;40423;53.176;6.002;2022-11-03T02:45:24;11.00;99.90
54518;DHT22;40423;53.176;6.002;2022-11-03T02:47:54;10.90;99.90
54518;DHT22;40423;53.176;6.002;2022-11-03T02:50:25;10.90;99.90
54518;DHT22;40423;53.176;6.002;2022-11-03T02:52:51;10.90;99.90
54518;DHT22;40423;53.176;6.002;2022-11-03T02:55:21;10.80;99.90
54518;DHT22;40423;53.176;6.002;2022-11-03T03:00:26;10.80;99.90
54518;DHT22;40423;53.176;6.002;2022-11-03T03:02:58;10.80;99.90
54518;DHT22;40423;53.176;6.002;2022-11-03T03:05:28;10.80;99.90
54518;DHT22;40423;53.176;6.002;2022-11-03T03:08:01;10.80;99.90
54518;DHT22;40423;53.176;6.002;2022-11-03T03:10:38;10.80;99.90
54518;DHT22;40423;53.176;6.002;2022-11-03T03:13:06;10.80;99.90
54518;DHT22;40423;53.176;6.002;2022-11-03T03:15:49;10.70;99.90
54518;DHT22;40423;53.176;6.002;2022-11-03T03:18:29;10.80;99.90
54518;DHT22;40423;53.176;6.002;2022-11-03T03:21:29;10.80;99.90
54518;DHT22;40423;53.176;6.002;2022-11-03T03:27:08;10.80;99.90
54518;DHT22;40423;53.176;6.002;2022-11-03T03:29:43;10.80;99.90
54518;DHT22;40423;53.176;6.002;2022-11-03T03:32:12;10.80;99.90
54518;DHT22;40423;53.176;6.002;2022-11-03T03:34:40;10.80;99.90
54518;DHT22;40423;53.176;6.002;2022-11-03T03:37:08;10.80;99.90
54518;DHT22;40423;53.176;6.002;2022-11-03T03:39:37;10.90;99.90
54518;DHT22;40423;53.176;6.002;2022-11-03T03:42:07;10.90;99.90
54518;DHT22;40423;53.176;6.002;2022-11-03T03:44:35;10.90;99.90
54518;DHT22;40423;53.176;6.002;2022-11-03T03:47:10;10.90;99.90
54518;DHT22;40423;53.176;6.002;2022-11-03T03:49:37;11.00;99.90
54518;DHT22;40423;53.176;6.002;2022-11-03T03:52:03;11.00;99.90
54518;DHT22;40423;53.176;6.002;2022-11-03T03:54:29;11.00;99.90
54518;DHT22;40423;53.176;6.002;2022-11-03T03:57:06;11.00;99.90
54518;DHT22;40423;53.176;6.002;2022-11-03T03:59:34;11.00;99.90
54518;DHT22;40423;53.176;6.002;2022-11-03T04:02:00;10.90;99.90
54518;DHT22;40423;53.176;6.002;2022-11-03T04:04:26;11.00;99.90
54518;DHT22;40423;53.176;6.002;2022-11-03T04:06:51;11.00;99.90
54518;DHT22;40423;53.176;6.002;2022-11-03T04:09:40;11.10;99.90
54518;DHT22;40423;53.176;6.002;2022-11-03T04:12:07;11.00;99.90
54518;DHT22;40423;53.176;6.002;2022-11-03T04:14:52;11.00;99.90
54518;DHT22;40423;53.176;6.002;2022-11-03T04:17:38;11.00;99.90
54518;DHT22;40423;53.176;6.002;2022-11-03T04:20:25;11.00;99.90
54518;DHT22;40423;53.176;6.002;2022-11-03T04:23:09;11.00;99.90
54518;DHT22;40423;53.176;6.002;2022-11-03T04:25:35;10.90;99.90
54518;DHT22;40423;53.176;6.002;2022-11-03T04:28:11;10.90;99.90
54518;DHT22;40423;53.176;6.002;2022-11-03T04:30:37;11.00;99.90
54518;DHT22;40423;53.176;6.002;2022-11-03T04:33:09;10.90;99.90
54518;DHT22;40423;53.176;6.002;2022-11-03T04:35:36;10.90;99.90
54518;DHT22;40423;53.176;6.002;2022-11-03T04:38:28;10.80;99.90
54518;DHT22;40423;53.176;6.002;2022-11-03T04:40:57;10.80;99.90
54518;DHT22;40423;53.176;6.002;2022-11-03T04:43:31;10.80;99.90
54518;DHT22;40423;53.176;6.002;2022-11-03T04:45:57;10.80;99.90
54518;DHT22;40423;53.176;6.002;2022-11-03T04:48:24;10.80;99.90
54518;DHT22;40423;53.176;6.002;2022-11-03T04:50:53;11.00;99.90
54518;DHT22;40423;53.176;6.002;2022-11-03T04:53:20;10.70;99.90
54518;DHT22;40423;53.176;6.002;2022-11-03T04:55:49;10.70;99.90
54518;DHT22;40423;53.176;6.002;2022-11-03T04:58:21;10.70;99.90
54518;DHT22;40423;53.176;6.002;2022-11-03T05:00:52;10.70;99.90
54518;DHT22;40423;53.176;6.002;2022-11-03T05:03:35;10.70;99.90
54518;DHT22;40423;53.176;6.002;2022-11-03T05:06:14;10.70;99.90
54518;DHT22;40423;53.176;6.002;2022-11-03T05:08:42;10.70;99.90
54518;DHT22;40423;53.176;6.002;2022-11-03T05:11:16;10.60;99.90
54518;DHT22;40423;53.176;6.002;2022-11-03T05:13:43;10.60;99.90
54518;DHT22;40423;53.176;6.002;2022-11-03T05:16:09;10.60;99.90
54518;DHT22;40423;53.176;6.002;2022-11-03T05:18:41;10.60;99.90
54518;DHT22;40423;53.176;6.002;2022-11-03T05:21:11;10.60;99.90
54518;DHT22;40423;53.176;6.002;2022-11-03T05:23:39;10.60;99.90
54518;DHT22;40423;53.176;6.002;2022-11-03T05:26:14;10.60;99.90
54518;DHT22;40423;53.176;6.002;2022-11-03T05:28:47;10.60;99.90
54518;DHT22;40423;53.176;6.002;2022-11-03T05:31:24;10.60;99.90
54518;DHT22;40423;53.176;6.002;2022-11-03T05:33:52;10.60;99.90
54518;DHT22;40423;53.176;6.002;2022-11-03T05:36:22;10.60;99.90
54518;DHT22;40423;53.176;6.002;2022-11-03T05:38:49;10.70;99.90
54518;DHT22;40423;53.176;6.002;2022-11-03T05:41:26;10.60;99.90
54518;DHT22;40423;53.176;6.002;2022-11-03T05:44:35;10.60;99.90
54518;DHT22;40423;53.176;6.002;2022-11-03T05:47:12;10.60;99.90
54518;DHT22;40423;53.176;6.002;2022-11-03T05:49:39;10.60;99.90
54518;DHT22;40423;53.176;6.002;2022-11-03T05:52:08;10.60;99.90
54518;DHT22;40423;53.176;6.002;2022-11-03T05:54:38;10.60;99.90
54518;DHT22;40423;53.176;6.002;2022-11-03T05:57:12;10.60;99.90
54518;DHT22;40423;53.176;6.002;2022-11-03T05:59:38;10.60;99.90
54518;DHT22;40423;53.176;6.002;2022-11-03T06:02:07;10.60;99.90
54518;DHT22;40423;53.176;6.002;2022-11-03T06:04:38;10.70;99.90
54518;DHT22;40423;53.176;6.002;2022-11-03T06:09:42;10.70;99.90
54518;DHT22;40423;53.176;6.002;2022-11-03T06:12:14;10.70;99.90
54518;DHT22;40423;53.176;6.002;2022-11-03T06:14:42;10.80;99.90
54518;DHT22;40423;53.176;6.002;2022-11-03T06:17:19;10.70;99.90
54518;DHT22;40423;53.176;6.002;2022-11-03T06:19:48;10.80;99.90
54518;DHT22;40423;53.176;6.002;2022-11-03T06:24:40;11.00;99.90
54518;DHT22;40423;53.176;6.002;2022-11-03T06:27:15;10.80;99.90
54518;DHT22;40423;53.176;6.002;2022-11-03T06:29:55;10.80;99.90
54518;DHT22;40423;53.176;6.002;2022-11-03T06:32:21;10.80;99.90
54518;DHT22;40423;53.176;6.002;2022-11-03T06:34:55;10.80;99.90
54518;DHT22;40423;53.176;6.002;2022-11-03T06:37:24;10.80;99.90
54518;DHT22;40423;53.176;6.002;2022-11-03T06:39:56;10.80;99.90
54518;DHT22;40423;53.176;6.002;2022-11-03T06:42:25;11.00;99.90
54518;DHT22;40423;53.176;6.002;2022-11-03T06:44:50;10.80;99.90
54518;DHT22;40423;53.176;6.002;2022-11-03T06:47:25;10.80;99.90
54518;DHT22;40423;53.176;6.002;2022-11-03T06:49:58;10.80;99.90
54518;DHT22;40423;53.176;6.002;2022-11-03T06:52:33;10.90;99.90
54518;DHT22;40423;53.176;6.002;2022-11-03T06:57:39;10.80;99.90
54518;DHT22;40423;53.176;6.002;2022-11-03T07:00:21;10.90;99.90
54518;DHT22;40423;53.176;6.002;2022-11-03T07:03:12;10.90;99.90
54518;DHT22;40423;53.176;6.002;2022-11-03T07:05:39;10.90;99.90
54518;DHT22;40423;53.176;6.002;2022-11-03T07:10:39;10.90;99.90
54518;DHT22;40423;53.176;6.002;2022-11-03T07:13:26;10.90;99.90
54518;DHT22;40423;53.176;6.002;2022-11-03T07:15:51;11.40;99.90
54518;DHT22;40423;53.176;6.002;2022-11-03T07:18:30;11.00;99.90
54518;DHT22;40423;53.176;6.002;2022-11-03T07:21:04;11.00;99.90
54518;DHT22;40423;53.176;6.002;2022-11-03T07:23:31;11.00;99.90
54518;DHT22;40423;53.176;6.002;2022-11-03T07:25:59;11.10;99.90
54518;DHT22;40423;53.176;6.002;2022-11-03T07:28:35;11.10;99.90
54518;DHT22;40423;53.176;6.002;2022-11-03T07:31:29;11.10;99.90
54518;DHT22;40423;53.176;6.002;2022-11-03T07:33:57;11.10;99.90
54518;DHT22;40423;53.176;6.002;2022-11-03T07:36:25;11.20;99.90
54518;DHT22;40423;53.176;6.002;2022-11-03T07:38:52;11.20;99.90
54518;DHT22;40423;53.176;6.002;2022-11-03T07:41:21;11.20;99.90
54518;DHT22;40423;53.176;6.002;2022-11-03T07:43:55;11.20;99.90
54518;DHT22;40423;53.176;6.002;2022-11-03T07:46:23;11.20;99.90
54518;DHT22;40423;53.176;6.002;2022-11-03T07:48:57;11.30;99.90
54518;DHT22;40423;53.176;6.002;2022-11-03T07:51:33;11.30;99.90
54518;DHT22;40423;53.176;6.002;2022-11-03T07:54:07;11.30;99.90
54518;DHT22;40423;53.176;6.002;2022-11-03T07:56:38;11.30;99.90
54518;DHT22;40423;53.176;6.002;2022-11-03T07:59:14;11.30;99.90
54518;DHT22;40423;53.176;6.002;2022-11-03T08:02:00;11.40;99.90
54518;DHT22;40423;53.176;6.002;2022-11-03T08:04:30;11.50;99.90
54518;DHT22;40423;53.176;6.002;2022-11-03T08:06:57;11.50;99.90
54518;DHT22;40423;53.176;6.002;2022-11-03T08:09:23;11.50;99.90
54518;DHT22;40423;53.176;6.002;2022-11-03T08:11:49;11.60;99.90
54518;DHT22;40423;53.176;6.002;2022-11-03T08:14:16;11.50;99.90
54518;DHT22;40423;53.176;6.002;2022-11-03T08:16:42;11.50;99.90
54518;DHT22;40423;53.176;6.002;2022-11-03T08:19:07;11.60;99.90
54518;DHT22;40423;53.176;6.002;2022-11-03T08:21:33;11.60;99.90
54518;DHT22;40423;53.176;6.002;2022-11-03T08:23:59;11.60;99.90
54518;DHT22;40423;53.176;6.002;2022-11-03T08:26:24;11.90;99.90
54518;DHT22;40423;53.176;6.002;2022-11-03T08:28:50;11.80;99.90
54518;DHT22;40423;53.176;6.002;2022-11-03T08:31:17;11.80;99.90
54518;DHT22;40423;53.176;6.002;2022-11-03T08:33:42;11.90;99.90
54518;DHT22;40423;53.176;6.002;2022-11-03T08:36:09;12.00;99.90
54518;DHT22;40423;53.176;6.002;2022-11-03T08:38:35;12.00;99.90
54518;DHT22;40423;53.176;6.002;2022-11-03T08:41:01;11.90;99.90
54518;DHT22;40423;53.176;6.002;2022-11-03T08:43:27;12.10;99.90
54518;DHT22;40423;53.176;6.002;2022-11-03T08:45:53;12.10;99.90
54518;DHT22;40423;53.176;6.002;2022-11-03T08:48:20;12.10;99.90
54518;DHT22;40423;53.176;6.002;2022-11-03T08:50:46;12.20;99.90
54518;DHT22;40423;53.176;6.002;2022-11-03T08:53:12;12.10;99.90
54518;DHT22;40423;53.176;6.002;2022-11-03T08:55:38;12.20;99.90
54518;DHT22;40423;53.176;6.002;2022-11-03T08:58:04;12.20;99.90
54518;DHT22;40423;53.176;6.002;2022-11-03T09:00:30;12.20;99.90
54518;DHT22;40423;53.176;6.002;2022-11-03T09:02:55;12.30;99.90
54518;DHT22;40423;53.176;6.002;2022-11-03T09:05:21;12.30;99.90
54518;DHT22;40423;53.176;6.002;2022-11-03T09:07:46;12.40;99.90
54518;DHT22;40423;53.176;6.002;2022-11-03T09:10:12;12.50;99.90
54518;DHT22;40423;53.176;6.002;2022-11-03T09:12:38;12.50;99.90
54518;DHT22;40423;53.176;6.002;2022-11-03T09:15:05;12.60;99.90
54518;DHT22;40423;53.176;6.002;2022-11-03T09:17:31;12.60;99.90
54518;DHT22;40423;53.176;6.002;2022-11-03T09:19:57;12.70;99.90
54518;DHT22;40423;53.176;6.002;2022-11-03T09:22:25;12.70;99.90
54518;DHT22;40423;53.176;6.002;2022-11-03T09:24:51;12.70;99.90
54518;DHT22;40423;53.176;6.002;2022-11-03T09:27:20;12.80;99.90
54518;DHT22;40423;53.176;6.002;2022-11-03T09:29:46;12.80;99.90
54518;DHT22;40423;53.176;6.002;2022-11-03T09:32:12;12.80;99.90
54518;DHT22;40423;53.176;6.002;2022-11-03T09:34:37;12.80;99.90
54518;DHT22;40423;53.176;6.002;2022-11-03T09:37:03;12.90;99.90
54518;DHT22;40423;53.176;6.002;2022-11-03T09:39:29;12.90;99.90
54518;DHT22;40423;53.176;6.002;2022-11-03T09:41:55;12.90;99.90
54518;DHT22;40423;53.176;6.002;2022-11-03T09:44:22;12.90;99.90
54518;DHT22;40423;53.176;6.002;2022-11-03T09:46:49;12.90;99.90
54518;DHT22;40423;53.176;6.002;2022-11-03T09:49:16;12.90;99.90
54518;DHT22;40423;53.176;6.002;2022-11-03T09:51:44;13.00;99.90
54518;DHT22;40423;53.176;6.002;2022-11-03T09:54:13;12.90;99.90
54518;DHT22;40423;53.176;6.002;2022-11-03T09:56:42;13.00;99.90
54518;DHT22;40423;53.176;6.002;2022-11-03T09:59:19;13.00;99.90
54518;DHT22;40423;53.176;6.002;2022-11-03T10:01:46;13.00;99.90
54518;DHT22;40423;53.176;6.002;2022-11-03T10:04:24;13.10;99.90
54518;DHT22;40423;53.176;6.002;2022-11-03T10:06:52;13.20;99.90
54518;DHT22;40423;53.176;6.002;2022-11-03T10:09:18;13.10;99.90
54518;DHT22;40423;53.176;6.002;2022-11-03T10:11:45;13.20;99.90
54518;DHT22;40423;53.176;6.002;2022-11-03T10:14:13;13.20;99.90
54518;DHT22;40423;53.176;6.002;2022-11-03T10:16:41;13.20;99.90
54518;DHT22;40423;53.176;6.002;2022-11-03T10:19:13;13.20;99.90
54518;DHT22;40423;53.176;6.002;2022-11-03T10:21:41;13.20;99.90
54518;DHT22;40423;53.176;6.002;2022-11-03T10:24:11;13.20;99.90
54518;DHT22;40423;53.176;6.002;2022-11-03T10:26:48;13.30;99.90
54518;DHT22;40423;53.176;6.002;2022-11-03T10:29:19;13.30;99.90
54518;DHT22;40423;53.176;6.002;2022-11-03T10:31:46;13.30;99.90
54518;DHT22;40423;53.176;6.002;2022-11-03T10:34:47;13.40;99.90
54518;DHT22;40423;53.176;6.002;2022-11-03T10:37:15;13.30;99.90
54518;DHT22;40423;53.176;6.002;2022-11-03T10:39:42;13.30;99.90
54518;DHT22;40423;53.176;6.002;2022-11-03T10:42:26;13.40;99.90
54518;DHT22;40423;53.176;6.002;2022-11-03T10:45:14;13.40;99.90
54518;DHT22;40423;53.176;6.002;2022-11-03T10:47:42;13.40;99.90
54518;DHT22;40423;53.176;6.002;2022-11-03T10:50:26;13.50;99.90
54518;DHT22;40423;53.176;6.002;2022-11-03T10:52:53;13.50;99.90
54518;DHT22;40423;53.176;6.002;2022-11-03T10:55:20;13.50;99.90
54518;DHT22;40423;53.176;6.002;2022-11-03T10:57:46;13.60;99.90
54518;DHT22;40423;53.176;6.002;2022-11-03T11:00:15;13.70;99.90
54518;DHT22;40423;53.176;6.002;2022-11-03T11:02:48;13.70;99.90
54518;DHT22;40423;53.176;6.002;2022-11-03T11:05:18;13.80;99.90
54518;DHT22;40423;53.176;6.002;2022-11-03T11:07:44;13.90;99.90
54518;DHT22;40423;53.176;6.002;2022-11-03T11:10:19;13.90;99.90
54518;DHT22;40423;53.176;6.002;2022-11-03T11:15:44;13.90;99.90
54518;DHT22;40423;53.176;6.002;2022-11-03T11:21:01;14.00;99.90
54518;DHT22;40423;53.176;6.002;2022-11-03T11:23:47;14.00;99.90
54518;DHT22;40423;53.176;6.002;2022-11-03T11:26:33;14.10;99.90
54518;DHT22;40423;53.176;6.002;2022-11-03T11:31:44;14.10;99.90
54518;DHT22;40423;53.176;6.002;2022-11-03T11:58:11;14.30;99.90
54518;DHT22;40423;53.176;6.002;2022-11-03T12:00:58;14.30;99.90
54518;DHT22;40423;53.176;6.002;2022-11-03T12:03:28;14.30;99.90
54518;DHT22;40423;53.176;6.002;2022-11-03T12:05:54;14.30;99.90
54518;DHT22;40423;53.176;6.002;2022-11-03T12:08:25;14.40;99.90
54518;DHT22;40423;53.176;6.002;2022-11-03T12:11:02;14.40;99.90
54518;DHT22;40423;53.176;6.002;2022-11-03T12:16:04;14.40;99.90
54518;DHT22;40423;53.176;6.002;2022-11-03T12:18:50;14.40;99.90
54518;DHT22;40423;53.176;6.002;2022-11-03T12:21:48;14.40;99.90
54518;DHT22;40423;53.176;6.002;2022-11-03T12:26:55;14.50;99.90
54518;DHT22;40423;53.176;6.002;2022-11-03T12:29:21;14.40;99.90
54518;DHT22;40423;53.176;6.002;2022-11-03T12:31:47;14.50;99.90
54518;DHT22;40423;53.176;6.002;2022-11-03T12:34:12;14.40;99.90
54518;DHT22;40423;53.176;6.002;2022-11-03T12:36:38;14.40;99.90
54518;DHT22;40423;53.176;6.002;2022-11-03T12:39:04;14.50;99.90
54518;DHT22;40423;53.176;6.002;2022-11-03T12:41:29;14.40;99.90
54518;DHT22;40423;53.176;6.002;2022-11-03T12:43:55;14.50;99.90
54518;DHT22;40423;53.176;6.002;2022-11-03T12:46:21;14.50;99.90
54518;DHT22;40423;53.176;6.002;2022-11-03T12:48:47;14.50;99.90
54518;DHT22;40423;53.176;6.002;2022-11-03T12:51:16;14.50;99.90
54518;DHT22;40423;53.176;6.002;2022-11-03T12:53:43;14.50;99.90
54518;DHT22;40423;53.176;6.002;2022-11-03T12:56:10;14.50;99.90
54518;DHT22;40423;53.176;6.002;2022-11-03T12:58:36;14.50;99.90
54518;DHT22;40423;53.176;6.002;2022-11-03T13:01:03;14.60;99.90
54518;DHT22;40423;53.176;6.002;2022-11-03T13:03:30;14.60;99.90
54518;DHT22;40423;53.176;6.002;2022-11-03T13:05:57;14.60;99.90
54518;DHT22;40423;53.176;6.002;2022-11-03T13:08:23;14.60;99.90
54518;DHT22;40423;53.176;6.002;2022-11-03T13:10:49;14.60;99.90
54518;DHT22;40423;53.176;6.002;2022-11-03T13:13:15;14.60;99.90
54518;DHT22;40423;53.176;6.002;2022-11-03T13:15:41;14.60;99.90
54518;DHT22;40423;53.176;6.002;2022-11-03T13:18:06;14.60;99.90
54518;DHT22;40423;53.176;6.002;2022-11-03T13:20:32;14.50;99.90
54518;DHT22;40423;53.176;6.002;2022-11-03T13:22:58;14.50;99.90
54518;DHT22;40423;53.176;6.002;2022-11-03T13:25:24;14.50;99.90
54518;DHT22;40423;53.176;6.002;2022-11-03T13:27:50;14.50;99.90
54518;DHT22;40423;53.176;6.002;2022-11-03T13:30:20;14.50;99.90
54518;DHT22;40423;53.176;6.002;2022-11-03T13:32:46;14.40;99.90
54518;DHT22;40423;53.176;6.002;2022-11-03T13:35:12;14.50;99.90
54518;DHT22;40423;53.176;6.002;2022-11-03T13:37:38;14.40;99.90
54518;DHT22;40423;53.176;6.002;2022-11-03T13:40:04;14.40;99.90
54518;DHT22;40423;53.176;6.002;2022-11-03T13:42:30;14.40;99.90
54518;DHT22;40423;53.176;6.002;2022-11-03T13:44:55;14.40;99.90
54518;DHT22;40423;53.176;6.002;2022-11-03T13:47:22;14.40;99.90
54518;DHT22;40423;53.176;6.002;2022-11-03T13:49:48;14.40;99.90
54518;DHT22;40423;53.176;6.002;2022-11-03T13:52:17;14.40;99.90
54518;DHT22;40423;53.176;6.002;2022-11-03T13:54:43;14.50;99.90
54518;DHT22;40423;53.176;6.002;2022-11-03T13:57:10;14.50;99.90
54518;DHT22;40423;53.176;6.002;2022-11-03T13:59:36;14.50;99.90
54518;DHT22;40423;53.176;6.002;2022-11-03T14:02:03;14.50;99.90
54518;DHT22;40423;53.176;6.002;2022-11-03T14:04:29;14.50;99.90
54518;DHT22;40423;53.176;6.002;2022-11-03T14:06:54;14.40;99.90
54518;DHT22;40423;53.176;6.002;2022-11-03T14:09:20;14.40;99.90
54518;DHT22;40423;53.176;6.002;2022-11-03T14:11:46;14.40;99.90
54518;DHT22;40423;53.176;6.002;2022-11-03T14:14:30;14.40;99.90
54518;DHT22;40423;53.176;6.002;2022-11-03T14:16:56;14.20;99.90
54518;DHT22;40423;53.176;6.002;2022-11-03T14:19:22;14.40;99.90
54518;DHT22;40423;53.176;6.002;2022-11-03T14:21:48;14.40;99.90
54518;DHT22;40423;53.176;6.002;2022-11-03T14:24:14;14.50;99.90
54518;DHT22;40423;53.176;6.002;2022-11-03T14:26:40;14.40;99.90
54518;DHT22;40423;53.176;6.002;2022-11-03T14:29:06;14.30;99.90
54518;DHT22;40423;53.176;6.002;2022-11-03T14:31:32;14.30;99.90
54518;DHT22;40423;53.176;6.002;2022-11-03T14:33:57;14.30;99.90
54518;DHT22;40423;53.176;6.002;2022-11-03T14:36:23;14.40;99.90
54518;DHT22;40423;53.176;6.002;2022-11-03T14:38:49;14.30;99.90
54518;DHT22;40423;53.176;6.002;2022-11-03T14:41:15;14.40;99.90
54518;DHT22;40423;53.176;6.002;2022-11-03T14:43:59;14.30;99.90
54518;DHT22;40423;53.176;6.002;2022-11-03T14:46:26;14.40;99.90
54518;DHT22;40423;53.176;6.002;2022-11-03T14:48:52;14.40;99.90
54518;DHT22;40423;53.176;6.002;2022-11-03T14:51:19;14.40;99.90
54518;DHT22;40423;53.176;6.002;2022-11-03T14:53:44;14.40;99.90
54518;DHT22;40423;53.176;6.002;2022-11-03T14:56:10;14.40;99.90
54518;DHT22;40423;53.176;6.002;2022-11-03T14:58:36;14.50;99.90
54518;DHT22;40423;53.176;6.002;2022-11-03T15:01:03;14.50;99.90
54518;DHT22;40423;53.176;6.002;2022-11-03T15:03:29;14.40;99.90
54518;DHT22;40423;53.176;6.002;2022-11-03T15:05:55;14.50;99.90
54518;DHT22;40423;53.176;6.002;2022-11-03T15:08:21;14.40;99.90
54518;DHT22;40423;53.176;6.002;2022-11-03T15:10:48;14.50;99.90
54518;DHT22;40423;53.176;6.002;2022-11-03T15:13:14;14.40;99.90
54518;DHT22;40423;53.176;6.002;2022-11-03T15:15:40;14.40;99.90
54518;DHT22;40423;53.176;6.002;2022-11-03T15:18:07;14.40;99.90
54518;DHT22;40423;53.176;6.002;2022-11-03T15:20:33;14.40;99.90
54518;DHT22;40423;53.176;6.002;2022-11-03T15:23:03;14.30;99.90
54518;DHT22;40423;53.176;6.002;2022-11-03T15:25:30;14.40;99.90
54518;DHT22;40423;53.176;6.002;2022-11-03T15:27:56;14.30;99.90
54518;DHT22;40423;53.176;6.002;2022-11-03T15:30:21;14.30;99.90
54518;DHT22;40423;53.176;6.002;2022-11-03T15:32:47;14.30;99.90
54518;DHT22;40423;53.176;6.002;2022-11-03T15:35:13;14.20;99.90
54518;DHT22;40423;53.176;6.002;2022-11-03T15:37:39;14.20;99.90
54518;DHT22;40423;53.176;6.002;2022-11-03T15:40:07;14.20;99.90
54518;DHT22;40423;53.176;6.002;2022-11-03T15:42:33;14.20;99.90
54518;DHT22;40423;53.176;6.002;2022-11-03T15:44:59;14.20;99.90
54518;DHT22;40423;53.176;6.002;2022-11-03T15:47:25;14.20;99.90
54518;DHT22;40423;53.176;6.002;2022-11-03T15:49:51;14.20;99.90
54518;DHT22;40423;53.176;6.002;2022-11-03T15:52:16;14.20;99.90
54518;DHT22;40423;53.176;6.002;2022-11-03T15:54:42;14.20;99.90
54518;DHT22;40423;53.176;6.002;2022-11-03T15:57:08;14.20;99.90
54518;DHT22;40423;53.176;6.002;2022-11-03T15:59:33;14.20;99.90
54518;DHT22;40423;53.176;6.002;2022-11-03T16:01:59;14.10;99.90
54518;DHT22;40423;53.176;6.002;2022-11-03T16:04:25;14.10;99.90
54518;DHT22;40423;53.176;6.002;2022-11-03T16:06:50;14.10;99.90
54518;DHT22;40423;53.176;6.002;2022-11-03T16:09:16;14.10;99.90
54518;DHT22;40423;53.176;6.002;2022-11-03T16:11:42;14.10;99.90
54518;DHT22;40423;53.176;6.002;2022-11-03T16:14:07;14.10;99.90
54518;DHT22;40423;53.176;6.002;2022-11-03T16:16:33;14.00;99.90
54518;DHT22;40423;53.176;6.002;2022-11-03T16:18:59;14.10;99.90
54518;DHT22;40423;53.176;6.002;2022-11-03T16:21:24;14.00;99.90
54518;DHT22;40423;53.176;6.002;2022-11-03T16:23:50;14.00;99.90
54518;DHT22;40423;53.176;6.002;2022-11-03T16:26:15;14.40;99.90
54518;DHT22;40423;53.176;6.002;2022-11-03T16:28:46;14.00;99.90
54518;DHT22;40423;53.176;6.002;2022-11-03T16:31:11;14.00;99.90
54518;DHT22;40423;53.176;6.002;2022-11-03T16:33:37;13.90;99.90
54518;DHT22;40423;53.176;6.002;2022-11-03T16:36:03;14.00;99.90
54518;DHT22;40423;53.176;6.002;2022-11-03T16:38:29;13.90;99.90
54518;DHT22;40423;53.176;6.002;2022-11-03T16:40:54;13.90;99.90
54518;DHT22;40423;53.176;6.002;2022-11-03T16:43:20;14.00;99.90
54518;DHT22;40423;53.176;6.002;2022-11-03T16:45:49;13.90;99.90